EmailTwitter


Surface observations / Quebec / CYUL (71627)

Regions: Quebec | Canada | USA | Europe | France | UK | Elsewhere
Station
Display
Info & Location for CYUL (71627) | Help decoding METAR

Weather Conditions observed on 2018/10/15 at 11:00 UTC at MONTREAL INTL A, QB (CYUL)

Sky conditions: overcast.

Temperature: 7.0 Celsius.

Dewpoint: 4.0 Celsius.

Relative Humidity: 81%

Winds: Southeast at 9 km/h or 5 knots.

Mean Sea level Pressure: 101.70 kilopascals.

Altimeter Setting (QNH): 101.66 kilopascals or 30.02 inches of mercury.

Horizontal visibility: 30.00 statute miles or 48.00 kilometers.

Height of the Ceiling: 6706 metres ( 22000 feet ).

Coded METAR:

CYUL 151100Z 13005KT 30SM FEW060 FEW180 OVC220 07/04 A3002 RMK SC1AC1CI8 SC TR

AC TR SLP170=